Time,TemperatureF,DewpointF,PressureIn,WindDirection,WindDirectionDegrees,WindSpeedMPH,WindSpeedGustMPH,Humidity,HourlyPrecipIn,Conditions,Clouds,dailyrainin,SoftwareType,DateUTC
2013-06-02 00:03:00,59.0,49.2,30.10,NW,311,1.0,1.0,70,0.00,,---,0.00,VWS V14.01,2013-06-02 07:03:00,
2013-06-02 00:08:00,58.8,49.0,30.10,NNW,331,3.0,3.0,70,0.00,,---,0.00,VWS V14.01,2013-06-02 07:08:00,
2013-06-02 00:13:00,58.7,49.3,30.10,NNW,331,1.0,2.0,71,0.00,,---,0.00,VWS V14.01,2013-06-02 07:13:00,
2013-06-02 00:18:00,58.5,49.1,30.10,NNW,348,3.0,3.0,71,0.00,,---,0.00,VWS V14.01,2013-06-02 07:18:00,
2013-06-02 00:23:00,58.4,49.4,30.10,NNW,348,0.0,1.0,72,0.00,,---,0.00,VWS V14.01,2013-06-02 07:23:00,
2013-06-02 00:28:00,58.3,49.3,30.10,NNW,348,1.0,2.0,72,0.00,,---,0.00,VWS V14.01,2013-06-02 07:28:00,
2013-06-02 00:33:00,58.2,49.2,30.10,NNW,348,1.0,1.0,72,0.00,,---,0.00,VWS V14.01,2013-06-02 07:33:00,
2013-06-02 00:38:00,58.1,49.1,30.10,NNW,348,0.0,0.0,72,0.00,,---,0.00,VWS V14.01,2013-06-02 07:38:00,
2013-06-02 00:43:00,58.1,49.5,30.10,NNW,348,1.0,2.0,73,0.00,,---,0.00,VWS V14.01,2013-06-02 07:43:00,
2013-06-02 00:48:00,58.0,49.4,30.10,NNW,348,1.0,1.0,73,0.00,,---,0.00,VWS V14.01,2013-06-02 07:48:00,
2013-06-02 00:53:00,57.9,49.3,30.10,NNW,348,1.0,2.0,73,0.00,,---,0.00,VWS V14.01,2013-06-02 07:53:00,
2013-06-02 00:58:00,57.8,49.2,30.10,North,350,3.0,3.0,73,0.00,,---,0.00,VWS V14.01,2013-06-02 07:58:00,
2013-06-02 01:03:00,57.6,49.0,30.10,NNE,17,2.0,3.0,73,0.00,,---,0.00,VWS V14.01,2013-06-02 08:03:00,
2013-06-02 01:08:00,57.5,48.9,30.10,NNE,17,2.0,3.0,73,0.00,,---,0.00,VWS V14.01,2013-06-02 08:08:00,
2013-06-02 01:13:00,57.5,48.9,30.10,NNE,17,2.0,3.0,73,0.00,,---,0.00,VWS V14.01,2013-06-02 08:13:00,
2013-06-02 01:18:00,57.3,48.4,30.10,North,355,2.0,4.0,72,0.00,,---,0.00,VWS V14.01,2013-06-02 08:18:00,
2013-06-02 01:23:00,57.3,48.7,30.10,NNE,13,4.0,4.0,73,0.00,,---,0.00,VWS V14.01,2013-06-02 08:23:00,
2013-06-02 01:28:00,57.2,48.3,30.10,NNE,22,2.0,3.0,72,0.00,,---,0.00,VWS V14.01,2013-06-02 08:28:00,
2013-06-02 01:33:00,57.2,48.3,30.10,NNE,26,2.0,4.0,72,0.00,,---,0.00,VWS V14.01,2013-06-02 08:33:00,
2013-06-02 01:38:00,57.2,48.6,30.10,NNE,28,2.0,3.0,73,0.00,,---,0.00,VWS V14.01,2013-06-02 08:38:00,
2013-06-02 01:43:00,57.2,48.3,30.10,North,360,2.0,5.0,72,0.00,,---,0.00,VWS V14.01,2013-06-02 08:43:00,
2013-06-02 01:48:00,57.1,48.2,30.10,North,360,0.0,0.0,72,0.00,,---,0.00,VWS V14.01,2013-06-02 08:48:00,
2013-06-02 01:53:00,57.1,48.2,30.10,North,360,0.0,0.0,72,0.00,,---,0.00,VWS V14.01,2013-06-02 08:53:00,
2013-06-02 01:58:00,57.0,48.1,30.10,NNE,33,2.0,3.0,72,0.00,,---,0.00,VWS V14.01,2013-06-02 08:58:00,
2013-06-02 02:03:00,56.9,48.0,30.10,NNE,33,0.0,0.0,72,0.00,,---,0.00,VWS V14.01,2013-06-02 09:03:00,
2013-06-02 02:08:00,56.8,47.9,30.09,NNE,33,0.0,2.0,72,0.00,,---,0.00,VWS V14.01,2013-06-02 09:08:00,
2013-06-02 02:13:00,56.8,48.2,30.10,NNE,33,2.0,3.0,73,0.00,,---,0.00,VWS V14.01,2013-06-02 09:13:00,
2013-06-02 02:18:00,56.6,48.1,30.10,NNE,16,2.0,4.0,73,0.00,,---,0.00,VWS V14.01,2013-06-02 09:18:00,
2013-06-02 02:23:00,56.5,47.6,30.10,NW,309,3.0,5.0,72,0.00,,---,0.00,VWS V14.01,2013-06-02 09:23:00,
2013-06-02 02:28:00,56.4,47.9,30.10,North,5,4.0,4.0,73,0.00,,---,0.00,VWS V14.01,2013-06-02 09:28:00,
2013-06-02 02:33:00,56.4,47.9,30.09,North,355,3.0,4.0,73,0.00,,---,0.00,VWS V14.01,2013-06-02 09:33:00,
2013-06-02 02:38:00,56.3,47.8,30.10,NNW,347,2.0,4.0,73,0.00,,---,0.00,VWS V14.01,2013-06-02 09:38:00,
2013-06-02 02:43:00,56.3,47.8,30.10,NNW,346,1.0,2.0,73,0.00,,---,0.00,VWS V14.01,2013-06-02 09:43:00,
2013-06-02 02:48:00,56.2,48.0,30.10,NNW,346,1.0,3.0,74,0.00,,---,0.00,VWS V14.01,2013-06-02 09:48:00,
2013-06-02 02:53:00,56.1,47.9,30.10,NW,322,3.0,4.0,74,0.00,,---,0.00,VWS V14.01,2013-06-02 09:53:00,
2013-06-02 02:58:00,56.0,48.2,30.10,North,351,1.0,3.0,75,0.00,,---,0.00,VWS V14.01,2013-06-02 09:58:00,
2013-06-02 03:03:00,55.9,48.1,30.10,NNE,26,1.0,1.0,75,0.00,,---,0.00,VWS V14.01,2013-06-02 10:03:00,
2013-06-02 03:08:00,55.8,48.0,30.09,NNE,26,3.0,3.0,75,0.00,,---,0.00,VWS V14.01,2013-06-02 10:08:00,
2013-06-02 03:13:00,55.7,47.9,30.09,NNE,26,2.0,2.0,75,0.00,,---,0.00,VWS V14.01,2013-06-02 10:13:00,
2013-06-02 03:18:00,55.7,48.3,30.09,NNE,28,0.0,0.0,76,0.00,,---,0.00,VWS V14.01,2013-06-02 10:18:00,
2013-06-02 03:23:00,55.6,48.2,30.09,NNE,28,1.0,2.0,76,0.00,,---,0.00,VWS V14.01,2013-06-02 10:23:00,
2013-06-02 03:28:00,55.5,48.4,30.09,NNE,28,0.0,0.0,77,0.00,,---,0.00,VWS V14.01,2013-06-02 10:28:00,
2013-06-02 03:33:00,55.4,48.3,30.09,NNE,28,0.0,1.0,77,0.00,,---,0.00,VWS V14.01,2013-06-02 10:33:00,
2013-06-02 03:38:00,55.4,48.7,30.10,NNE,28,0.0,1.0,78,0.00,,---,0.00,VWS V14.01,2013-06-02 10:38:00,
2013-06-02 03:43:00,55.3,48.9,30.10,NNE,28,0.0,1.0,79,0.00,,---,0.00,VWS V14.01,2013-06-02 10:43:00,
2013-06-02 03:48:00,55.3,48.9,30.10,NNE,28,0.0,0.0,79,0.00,,---,0.00,VWS V14.01,2013-06-02 10:48:00,
2013-06-02 03:53:00,55.2,48.8,30.10,NNE,28,0.0,0.0,79,0.00,,---,0.00,VWS V14.01,2013-06-02 10:53:00,
2013-06-02 03:58:00,55.1,49.0,30.09,NNE,28,0.0,0.0,80,0.00,,---,0.00,VWS V14.01,2013-06-02 10:58:00,
2013-06-02 04:03:00,55.0,49.0,30.09,NNE,28,0.0,0.0,80,0.00,,---,0.00,VWS V14.01,2013-06-02 11:03:00,
2013-06-02 04:08:00,55.0,49.0,30.09,NNE,28,2.0,3.0,80,0.00,,---,0.00,VWS V14.01,2013-06-02 11:08:00,
2013-06-02 04:13:00,54.9,49.2,30.09,NNE,28,0.0,2.0,81,0.00,,---,0.00,VWS V14.01,2013-06-02 11:13:00,
2013-06-02 04:18:00,54.8,49.4,30.10,NNE,28,1.0,2.0,82,0.01,,---,0.01,VWS V14.01,2013-06-02 11:18:00,
2013-06-02 04:23:00,54.7,50.0,30.10,NNE,19,1.0,3.0,84,0.01,,---,0.01,VWS V14.01,2013-06-02 11:23:00,
2013-06-02 04:28:00,54.4,50.0,30.10,NNE,19,1.0,2.0,85,0.02,,---,0.02,VWS V14.01,2013-06-02 11:28:00,
2013-06-02 04:33:00,54.2,50.1,30.10,NNE,19,0.0,0.0,86,0.03,,---,0.03,VWS V14.01,2013-06-02 11:33:00,
2013-06-02 04:38:00,54.0,50.2,30.10,NNE,19,0.0,0.0,87,0.03,,---,0.03,VWS V14.01,2013-06-02 11:38:00,
2013-06-02 04:43:00,53.9,50.4,30.10,NNE,19,0.0,0.0,88,0.03,,---,0.03,VWS V14.01,2013-06-02 11:43:00,
2013-06-02 04:48:00,53.8,50.3,30.10,NNE,19,0.0,0.0,88,0.03,,---,0.03,VWS V14.01,2013-06-02 11:48:00,
2013-06-02 04:53:00,53.7,50.2,30.09,NNE,19,0.0,0.0,88,0.03,,---,0.03,VWS V14.01,2013-06-02 11:53:00,
2013-06-02 04:58:00,53.6,50.4,30.10,NNE,19,0.0,0.0,89,0.03,,---,0.03,VWS V14.01,2013-06-02 11:58:00,
2013-06-02 05:03:00,53.5,50.9,30.10,NNE,19,0.0,0.0,91,0.03,,---,0.03,VWS V14.01,2013-06-02 12:03:00,
2013-06-02 05:08:00,53.5,50.9,30.10,NNE,19,0.0,0.0,91,0.03,,---,0.03,VWS V14.01,2013-06-02 12:08:00,
2013-06-02 05:13:00,53.4,50.8,30.10,NNE,19,0.0,0.0,91,0.03,,---,0.03,VWS V14.01,2013-06-02 12:13:00,
2013-06-02 05:18:00,53.4,51.1,30.10,NNE,19,0.0,0.0,92,0.02,,---,0.03,VWS V14.01,2013-06-02 12:18:00,
2013-06-02 05:23:00,53.3,51.0,30.10,NNE,19,0.0,0.0,92,0.02,,---,0.03,VWS V14.01,2013-06-02 12:23:00,
2013-06-02 05:28:00,53.4,51.1,30.10,NNE,19,0.0,0.0,92,0.01,,---,0.03,VWS V14.01,2013-06-02 12:28:00,
2013-06-02 05:33:00,53.3,51.0,30.10,NNE,19,0.0,0.0,92,0.00,,---,0.03,VWS V14.01,2013-06-02 12:33:00,
2013-06-02 05:38:00,53.2,50.7,30.10,NNE,19,0.0,0.0,91,0.00,,---,0.03,VWS V14.01,2013-06-02 12:38:00,
2013-06-02 05:43:00,53.2,50.9,30.10,NNE,19,0.0,0.0,92,0.00,,---,0.03,VWS V14.01,2013-06-02 12:43:00,
2013-06-02 05:48:00,53.2,50.7,30.10,NNE,19,0.0,0.0,91,0.00,,---,0.03,VWS V14.01,2013-06-02 12:48:00,
2013-06-02 05:53:00,53.3,50.7,30.10,NNE,19,1.0,1.0,91,0.00,,---,0.03,VWS V14.01,2013-06-02 12:53:00,
2013-06-02 05:58:00,53.3,50.7,30.11,NNE,19,0.0,0.0,91,0.00,,---,0.03,VWS V14.01,2013-06-02 12:58:00,
2013-06-02 06:03:00,53.3,50.7,30.11,NNE,19,0.0,0.0,91,0.00,,---,0.03,VWS V14.01,2013-06-02 13:03:00,
2013-06-02 06:08:00,53.4,51.1,30.11,NNE,19,1.0,2.0,92,0.00,,---,0.03,VWS V14.01,2013-06-02 13:08:00,
2013-06-02 06:13:00,53.5,51.2,30.11,NNE,19,0.0,1.0,92,0.00,,---,0.03,VWS V14.01,2013-06-02 13:13:00,
2013-06-02 06:18:00,53.5,51.2,30.11,NNE,19,0.0,0.0,92,0.00,,---,0.03,VWS V14.01,2013-06-02 13:18:00,
2013-06-02 06:23:00,53.7,51.4,30.11,NNE,19,0.0,1.0,92,0.00,,---,0.03,VWS V14.01,2013-06-02 13:23:00,
2013-06-02 06:28:00,53.7,51.4,30.11,North,360,0.0,2.0,92,0.00,,---,0.03,VWS V14.01,2013-06-02 13:28:00,
2013-06-02 06:33:00,53.8,51.5,30.11,North,9,2.0,4.0,92,0.00,,---,0.03,VWS V14.01,2013-06-02 13:33:00,
2013-06-02 06:38:00,53.8,51.2,30.12,North,9,2.0,3.0,91,0.00,,---,0.03,VWS V14.01,2013-06-02 13:38:00,
2013-06-02 06:43:00,53.9,51.6,30.12,North,9,0.0,2.0,92,0.00,,---,0.03,VWS V14.01,2013-06-02 13:43:00,
2013-06-02 06:48:00,53.9,51.6,30.12,North,9,0.0,0.0,92,0.00,,---,0.03,VWS V14.01,2013-06-02 13:48:00,
2013-06-02 06:53:00,54.0,51.4,30.12,North,9,0.0,1.0,91,0.00,,---,0.03,VWS V14.01,2013-06-02 13:53:00,
2013-06-02 06:58:00,54.0,51.4,30.12,NNE,28,2.0,2.0,91,0.00,,---,0.03,VWS V14.01,2013-06-02 13:58:00,
2013-06-02 07:03:00,54.1,51.8,30.12,NNE,15,2.0,4.0,92,0.00,,---,0.03,VWS V14.01,2013-06-02 14:03:00,
2013-06-02 07:08:00,54.2,51.9,30.11,NNE,27,3.0,4.0,92,0.00,,---,0.03,VWS V14.01,2013-06-02 14:08:00,
2013-06-02 07:13:00,54.2,51.9,30.12,NNE,27,0.0,2.0,92,0.00,,---,0.03,VWS V14.01,2013-06-02 14:13:00,
2013-06-02 07:18:00,54.3,52.0,30.12,NNE,27,1.0,1.0,92,0.00,,---,0.03,VWS V14.01,2013-06-02 14:18:00,
2013-06-02 07:23:00,54.4,52.1,30.12,NNE,26,1.0,1.0,92,0.00,,---,0.03,VWS V14.01,2013-06-02 14:23:00,
2013-06-02 07:28:00,54.4,52.1,30.12,NNE,26,0.0,2.0,92,0.00,,---,0.03,VWS V14.01,2013-06-02 14:28:00,
2013-06-02 07:33:00,54.5,51.9,30.12,NNE,22,2.0,4.0,91,0.00,,---,0.03,VWS V14.01,2013-06-02 14:33:00,
2013-06-02 07:38:00,54.4,51.8,30.12,NNE,22,0.0,1.0,91,0.00,,---,0.03,VWS V14.01,2013-06-02 14:38:00,
2013-06-02 07:43:00,54.5,51.9,30.12,NNE,22,2.0,2.0,91,0.00,,---,0.03,VWS V14.01,2013-06-02 14:43:00,
2013-06-02 07:48:00,54.5,51.9,30.12,North,9,3.0,4.0,91,0.00,,---,0.03,VWS V14.01,2013-06-02 14:48:00,
2013-06-02 07:53:00,54.4,51.5,30.12,NNW,336,0.0,3.0,90,0.00,,---,0.03,VWS V14.01,2013-06-02 14:53:00,
2013-06-02 07:58:00,54.4,51.8,30.12,NNW,336,3.0,3.0,91,0.00,,---,0.03,VWS V14.01,2013-06-02 14:58:00,
2013-06-02 08:03:00,54.4,51.8,30.12,NNW,336,2.0,3.0,91,0.00,,---,0.03,VWS V14.01,2013-06-02 15:03:00,
2013-06-02 08:08:00,54.5,51.9,30.12,NNW,336,0.0,0.0,91,0.00,,---,0.03,VWS V14.01,2013-06-02 15:08:00,
2013-06-02 08:13:00,54.6,52.0,30.12,NNW,336,3.0,3.0,91,0.00,,---,0.03,VWS V14.01,2013-06-02 15:13:00,
2013-06-02 08:18:00,54.8,52.2,30.12,NNW,336,2.0,2.0,91,0.00,,---,0.03,VWS V14.01,2013-06-02 15:18:00,
2013-06-02 08:23:00,54.9,51.7,30.12,NNW,336,2.0,3.0,89,0.00,,---,0.03,VWS V14.01,2013-06-02 15:23:00,
2013-06-02 08:28:00,55.1,52.2,30.12,NNW,336,0.0,2.0,90,0.00,,---,0.03,VWS V14.01,2013-06-02 15:28:00,
2013-06-02 08:33:00,55.3,52.1,30.12,NNW,338,2.0,2.0,89,0.00,,---,0.03,VWS V14.01,2013-06-02 15:33:00,
2013-06-02 08:38:00,55.6,52.4,30.12,NE,40,2.0,2.0,89,0.00,,---,0.03,VWS V14.01,2013-06-02 15:38:00,
2013-06-02 08:43:00,55.8,52.3,30.12,NNE,22,2.0,3.0,88,0.00,,---,0.03,VWS V14.01,2013-06-02 15:43:00,
2013-06-02 08:48:00,55.9,52.1,30.12,NNW,331,7.0,8.0,87,0.00,,---,0.03,VWS V14.01,2013-06-02 15:48:00,
2013-06-02 08:53:00,55.9,51.8,30.12,WNW,302,5.0,7.0,86,0.00,,---,0.03,VWS V14.01,2013-06-02 15:53:00,
2013-06-02 08:58:00,55.9,52.1,30.12,NNW,347,4.0,6.0,87,0.00,,---,0.03,VWS V14.01,2013-06-02 15:58:00,
2013-06-02 09:03:00,56.2,52.4,30.12,WNW,286,3.0,6.0,87,0.00,,---,0.03,VWS V14.01,2013-06-02 16:03:00,
2013-06-02 09:08:00,56.4,52.6,30.12,NW,315,1.0,4.0,87,0.00,,---,0.03,VWS V14.01,2013-06-02 16:08:00,
2013-06-02 09:13:00,56.6,52.5,30.12,NW,309,3.0,5.0,86,0.00,,---,0.03,VWS V14.01,2013-06-02 16:13:00,
2013-06-02 09:18:00,56.6,51.8,30.12,NNW,341,3.0,4.0,84,0.00,,---,0.03,VWS V14.01,2013-06-02 16:18:00,
2013-06-02 09:23:00,56.5,51.7,30.12,NE,34,1.0,2.0,84,0.00,,---,0.03,VWS V14.01,2013-06-02 16:23:00,
2013-06-02 09:28:00,56.4,52.0,30.12,NNW,340,3.0,6.0,85,0.00,,---,0.03,VWS V14.01,2013-06-02 16:28:00,
2013-06-02 09:33:00,56.3,52.2,30.12,NNW,334,3.0,4.0,86,0.00,,---,0.03,VWS V14.01,2013-06-02 16:33:00,
2013-06-02 09:38:00,56.3,52.2,30.12,NNW,331,1.0,3.0,86,0.00,,---,0.03,VWS V14.01,2013-06-02 16:38:00,
2013-06-02 09:43:00,56.5,52.4,30.12,NNW,331,1.0,3.0,86,0.00,,---,0.03,VWS V14.01,2013-06-02 16:43:00,
2013-06-02 09:48:00,56.8,52.3,30.12,NNW,331,0.0,2.0,85,0.00,,---,0.03,VWS V14.01,2013-06-02 16:48:00,
2013-06-02 09:53:00,57.0,52.2,30.12,NNW,347,0.0,4.0,84,0.00,,---,0.03,VWS V14.01,2013-06-02 16:53:00,
2013-06-02 09:58:00,57.1,51.0,30.12,NNW,337,3.0,3.0,80,0.00,,---,0.03,VWS V14.01,2013-06-02 16:58:00,
2013-06-02 10:03:00,57.4,51.6,30.12,NNW,337,2.0,3.0,81,0.00,,---,0.03,VWS V14.01,2013-06-02 17:03:00,
2013-06-02 10:08:00,57.6,52.2,30.12,NNW,337,2.0,2.0,82,0.00,,---,0.03,VWS V14.01,2013-06-02 17:08:00,
2013-06-02 10:13:00,57.5,52.4,30.12,NNW,337,3.0,3.0,83,0.00,,---,0.03,VWS V14.01,2013-06-02 17:13:00,
2013-06-02 10:18:00,57.5,51.4,30.12,NNW,348,1.0,4.0,80,0.00,,---,0.03,VWS V14.01,2013-06-02 17:18:00,
2013-06-02 10:23:00,57.6,51.5,30.12,NNW,345,3.0,5.0,80,0.00,,---,0.03,VWS V14.01,2013-06-02 17:23:00,
2013-06-02 10:28:00,57.7,51.2,30.12,North,355,4.0,6.0,79,0.00,,---,0.03,VWS V14.01,2013-06-02 17:28:00,
2013-06-02 10:33:00,58.0,51.9,30.13,North,355,5.0,6.0,80,0.00,,---,0.03,VWS V14.01,2013-06-02 17:33:00,
2013-06-02 10:38:00,58.4,51.6,30.13,NNW,339,2.0,2.0,78,0.00,,---,0.03,VWS V14.01,2013-06-02 17:38:00,
2013-06-02 10:43:00,58.4,51.6,30.13,NNW,339,2.0,3.0,78,0.00,,---,0.03,VWS V14.01,2013-06-02 17:43:00,
2013-06-02 10:48:00,58.2,51.4,30.13,NNW,332,6.0,6.0,78,0.00,,---,0.03,VWS V14.01,2013-06-02 17:48:00,
2013-06-02 10:53:00,58.3,50.8,30.13,North,355,0.0,2.0,76,0.00,,---,0.03,VWS V14.01,2013-06-02 17:53:00,
2013-06-02 10:58:00,58.3,51.1,30.13,North,350,1.0,1.0,77,0.00,,---,0.03,VWS V14.01,2013-06-02 17:58:00,
2013-06-02 11:03:00,58.5,51.3,30.13,North,350,2.0,3.0,77,0.00,,---,0.03,VWS V14.01,2013-06-02 18:03:00,
2013-06-02 11:08:00,58.9,51.7,30.13,NNW,340,4.0,5.0,77,0.00,,---,0.03,VWS V14.01,2013-06-02 18:08:00,
2013-06-02 11:13:00,59.5,51.9,30.13,NNW,340,3.0,4.0,76,0.00,,---,0.03,VWS V14.01,2013-06-02 18:13:00,
2013-06-02 11:18:00,60.1,52.2,30.13,NNW,331,2.0,5.0,75,0.00,,---,0.03,VWS V14.01,2013-06-02 18:18:00,
2013-06-02 11:23:00,60.6,52.3,30.13,NNW,334,4.0,4.0,74,0.00,,---,0.03,VWS V14.01,2013-06-02 18:23:00,
2013-06-02 11:28:00,60.8,52.5,30.13,NE,47,4.0,6.0,74,0.00,,---,0.03,VWS V14.01,2013-06-02 18:28:00,
2013-06-02 11:33:00,61.0,52.3,30.13,ENE,66,3.0,5.0,73,0.00,,---,0.03,VWS V14.01,2013-06-02 18:33:00,
2013-06-02 11:38:00,61.0,52.7,30.13,NE,55,4.0,6.0,74,0.00,,---,0.03,VWS V14.01,2013-06-02 18:38:00,
2013-06-02 11:43:00,61.6,53.2,30.13,East,96,4.0,6.0,74,0.00,,---,0.03,VWS V14.01,2013-06-02 18:43:00,
2013-06-02 11:48:00,61.7,52.6,30.12,NNE,15,2.0,3.0,72,0.00,,---,0.03,VWS V14.01,2013-06-02 18:48:00,
2013-06-02 11:53:00,61.7,53.7,30.12,ENE,63,1.0,4.0,75,0.00,,---,0.03,VWS V14.01,2013-06-02 18:53:00,
2013-06-02 11:58:00,62.1,53.0,30.12,ENE,74,1.0,5.0,72,0.00,,---,0.03,VWS V14.01,2013-06-02 18:58:00,
2013-06-02 12:03:00,62.1,51.8,30.12,North,360,7.0,9.0,69,0.00,,---,0.03,VWS V14.01,2013-06-02 19:03:00,
2013-06-02 12:08:00,61.9,51.6,30.13,NW,323,3.0,4.0,69,0.00,,---,0.03,VWS V14.01,2013-06-02 19:08:00,
2013-06-02 12:13:00,61.7,51.4,30.13,North,349,3.0,4.0,69,0.00,,---,0.03,VWS V14.01,2013-06-02 19:13:00,
2013-06-02 12:18:00,61.5,51.6,30.12,North,5,3.0,4.0,70,0.00,,---,0.03,VWS V14.01,2013-06-02 19:18:00,
2013-06-02 12:23:00,61.4,51.2,30.12,ENE,59,3.0,5.0,69,0.00,,---,0.03,VWS V14.01,2013-06-02 19:23:00,
2013-06-02 12:28:00,61.3,51.5,30.12,ENE,57,1.0,4.0,70,0.00,,---,0.03,VWS V14.01,2013-06-02 19:28:00,
2013-06-02 12:33:00,61.5,51.6,30.12,NNE,13,2.0,3.0,70,0.00,,---,0.03,VWS V14.01,2013-06-02 19:33:00,
2013-06-02 12:38:00,62.3,52.0,30.12,NW,323,4.0,4.0,69,0.00,,---,0.03,VWS V14.01,2013-06-02 19:38:00,
2013-06-02 12:43:00,62.9,51.8,30.12,NE,53,2.0,3.0,67,0.00,,---,0.03,VWS V14.01,2013-06-02 19:43:00,
2013-06-02 12:48:00,63.6,53.3,30.12,NE,55,7.0,8.0,69,0.00,,---,0.03,VWS V14.01,2013-06-02 19:48:00,
2013-06-02 12:53:00,64.6,53.0,30.12,North,351,2.0,5.0,66,0.00,,---,0.03,VWS V14.01,2013-06-02 19:53:00,
2013-06-02 12:58:00,65.2,52.3,30.12,NE,38,5.0,5.0,63,0.00,,---,0.03,VWS V14.01,2013-06-02 19:58:00,
2013-06-02 13:03:00,65.1,51.8,30.12,NNW,348,7.0,7.0,62,0.00,,---,0.03,VWS V14.01,2013-06-02 20:03:00,
2013-06-02 13:08:00,65.0,52.5,30.12,NNE,24,4.0,5.0,64,0.00,,---,0.03,VWS V14.01,2013-06-02 20:08:00,
2013-06-02 13:13:00,65.3,53.2,30.11,NNE,15,0.0,2.0,65,0.00,,---,0.03,VWS V14.01,2013-06-02 20:13:00,
2013-06-02 13:18:00,65.7,51.9,30.11,North,9,5.0,7.0,61,0.00,,---,0.03,VWS V14.01,2013-06-02 20:18:00,
2013-06-02 13:23:00,66.3,52.0,30.11,North,360,1.0,3.0,60,0.00,,---,0.03,VWS V14.01,2013-06-02 20:23:00,
2013-06-02 13:28:00,65.9,51.2,30.11,NNE,26,4.0,4.0,59,0.00,,---,0.03,VWS V14.01,2013-06-02 20:28:00,
2013-06-02 13:33:00,65.6,51.4,30.11,NNE,29,4.0,5.0,60,0.00,,---,0.03,VWS V14.01,2013-06-02 20:33:00,
2013-06-02 13:38:00,65.1,51.8,30.12,NE,34,3.0,7.0,62,0.00,,---,0.03,VWS V14.01,2013-06-02 20:38:00,
2013-06-02 13:43:00,64.8,51.0,30.12,NNE,13,0.0,2.0,61,0.00,,---,0.03,VWS V14.01,2013-06-02 20:43:00,
2013-06-02 13:48:00,64.7,51.4,30.12,NE,42,0.0,1.0,62,0.00,,---,0.03,VWS V14.01,2013-06-02 20:48:00,
2013-06-02 13:53:00,64.7,51.8,30.11,NE,42,0.0,2.0,63,0.00,,---,0.03,VWS V14.01,2013-06-02 20:53:00,
2013-06-02 13:58:00,64.2,50.9,30.12,South,183,1.0,4.0,62,0.00,,---,0.03,VWS V14.01,2013-06-02 20:58:00,
2013-06-02 14:03:00,63.4,50.6,30.11,SW,230,0.0,2.0,63,0.00,,---,0.03,VWS V14.01,2013-06-02 21:03:00,
2013-06-02 14:08:00,63.3,51.3,30.12,NNW,348,5.0,5.0,65,0.00,,---,0.03,VWS V14.01,2013-06-02 21:08:00,
2013-06-02 14:13:00,63.7,50.9,30.12,NNW,346,1.0,1.0,63,0.00,,---,0.03,VWS V14.01,2013-06-02 21:13:00,
2013-06-02 14:18:00,64.0,51.6,30.12,WSW,251,3.0,5.0,64,0.00,,---,0.03,VWS V14.01,2013-06-02 21:18:00,
2013-06-02 14:23:00,64.2,51.8,30.11,WSW,248,1.0,1.0,64,0.00,,---,0.03,VWS V14.01,2013-06-02 21:23:00,
2013-06-02 14:28:00,64.8,50.6,30.11,SW,222,7.0,7.0,60,0.00,,---,0.03,VWS V14.01,2013-06-02 21:28:00,
2013-06-02 14:33:00,64.5,51.2,30.11,West,267,5.0,5.0,62,0.00,,---,0.03,VWS V14.01,2013-06-02 21:33:00,
2013-06-02 14:38:00,64.3,51.5,30.11,SSW,205,5.0,5.0,63,0.00,,---,0.03,VWS V14.01,2013-06-02 21:38:00,
2013-06-02 14:44:00,64.1,51.3,30.11,WSW,241,9.0,9.0,63,0.00,,---,0.03,VWS V14.01,2013-06-02 21:44:00,
2013-06-02 14:49:00,64.1,50.8,30.11,WSW,250,6.0,6.0,62,0.00,,---,0.03,VWS V14.01,2013-06-02 21:49:00,
2013-06-02 14:54:00,64.1,51.3,30.11,SW,225,4.0,4.0,63,0.00,,---,0.03,VWS V14.01,2013-06-02 21:54:00,
2013-06-02 14:59:00,64.3,51.5,30.11,WSW,254,5.0,8.0,63,0.00,,---,0.03,VWS V14.01,2013-06-02 21:59:00,
2013-06-02 15:04:00,64.3,51.5,30.11,WNW,286,5.0,6.0,63,0.00,,---,0.03,VWS V14.01,2013-06-02 22:04:00,
2013-06-02 15:09:00,64.4,51.1,30.12,WSW,257,4.0,5.0,62,0.00,,---,0.03,VWS V14.01,2013-06-02 22:09:00,
2013-06-02 15:14:00,64.4,51.5,30.12,West,276,4.0,6.0,63,0.00,,---,0.03,VWS V14.01,2013-06-02 22:14:00,
2013-06-02 15:19:00,64.3,50.6,30.11,West,262,1.0,3.0,61,0.00,,---,0.03,VWS V14.01,2013-06-02 22:19:00,
2013-06-02 15:24:00,64.5,51.6,30.11,West,264,1.0,3.0,63,0.00,,---,0.03,VWS V14.01,2013-06-02 22:24:00,
2013-06-02 15:29:00,65.0,51.2,30.11,SW,220,1.0,4.0,61,0.00,,---,0.03,VWS V14.01,2013-06-02 22:29:00,
2013-06-02 15:34:00,65.1,51.3,30.11,WNW,298,4.0,4.0,61,0.00,,---,0.03,VWS V14.01,2013-06-02 22:34:00,
2013-06-02 15:39:00,65.5,51.7,30.11,NW,311,3.0,6.0,61,0.00,,---,0.03,VWS V14.01,2013-06-02 22:39:00,
2013-06-02 15:44:00,66.5,51.3,30.11,NW,317,1.0,5.0,58,0.00,,---,0.03,VWS V14.01,2013-06-02 22:44:00,
2013-06-02 15:49:00,67.3,52.5,30.11,SW,231,2.0,5.0,59,0.00,,---,0.03,VWS V14.01,2013-06-02 22:49:00,
2013-06-02 15:54:00,67.4,51.7,30.11,West,280,4.0,7.0,57,0.00,,---,0.03,VWS V14.01,2013-06-02 22:54:00,
2013-06-02 15:59:00,67.1,50.9,30.11,SW,217,3.0,5.0,56,0.00,,---,0.03,VWS V14.01,2013-06-02 22:59:00,
2013-06-02 16:04:00,67.1,51.4,30.10,NNW,328,2.0,4.0,57,0.00,,---,0.03,VWS V14.01,2013-06-02 23:04:00,
2013-06-02 16:09:00,67.9,52.1,30.10,NW,314,3.0,5.0,57,0.00,,---,0.03,VWS V14.01,2013-06-02 23:09:00,
2013-06-02 16:14:00,68.3,51.0,30.10,WSW,240,4.0,7.0,54,0.00,,---,0.03,VWS V14.01,2013-06-02 23:14:00,
2013-06-02 16:19:00,68.2,51.4,30.10,NW,321,0.0,3.0,55,0.00,,---,0.03,VWS V14.01,2013-06-02 23:19:00,
2013-06-02 16:24:00,68.2,50.9,30.10,WSW,256,5.0,5.0,54,0.00,,---,0.03,VWS V14.01,2013-06-02 23:24:00,
2013-06-02 16:29:00,67.9,50.2,30.10,WSW,248,3.0,4.0,53,0.00,,---,0.03,VWS V14.01,2013-06-02 23:29:00,
2013-06-02 16:34:00,68.1,50.3,30.10,West,273,4.0,6.0,53,0.00,,---,0.03,VWS V14.01,2013-06-02 23:34:00,
2013-06-02 16:39:00,68.5,51.2,30.10,WNW,302,2.0,6.0,54,0.00,,---,0.03,VWS V14.01,2013-06-02 23:39:00,
2013-06-02 16:44:00,68.8,50.0,30.10,WNW,284,6.0,6.0,51,0.00,,---,0.03,VWS V14.01,2013-06-02 23:44:00,
2013-06-02 16:49:00,69.0,50.1,30.10,WNW,297,2.0,5.0,51,0.00,,---,0.03,VWS V14.01,2013-06-02 23:49:00,
2013-06-02 16:54:00,69.2,49.8,30.10,WNW,298,0.0,0.0,50,0.00,,---,0.03,VWS V14.01,2013-06-02 23:54:00,
2013-06-02 16:59:00,69.5,50.6,30.09,NW,315,1.0,6.0,51,0.00,,---,0.03,VWS V14.01,2013-06-02 23:59:00,
2013-06-02 17:04:00,69.7,50.8,30.10,West,262,2.0,6.0,51,0.00,,---,0.03,VWS V14.01,2013-06-03 00:04:00,
2013-06-02 17:09:00,69.6,50.7,30.09,WNW,300,4.0,7.0,51,0.00,,---,0.03,VWS V14.01,2013-06-03 00:09:00,
2013-06-02 17:14:00,69.8,50.3,30.10,WSW,249,5.0,5.0,50,0.00,,---,0.03,VWS V14.01,2013-06-03 00:14:00,
2013-06-02 17:20:00,69.5,50.1,30.10,NW,324,3.0,5.0,50,0.00,,---,0.03,VWS V14.01,2013-06-03 00:20:00,
2013-06-02 17:25:00,69.6,49.6,30.10,West,265,3.0,3.0,49,0.00,,---,0.03,VWS V14.01,2013-06-03 00:25:00,
2013-06-02 17:30:00,69.3,50.4,30.09,WSW,252,5.0,7.0,51,0.00,,---,0.03,VWS V14.01,2013-06-03 00:30:00,
2013-06-02 17:35:00,68.7,49.9,30.09,WSW,245,4.0,6.0,51,0.00,,---,0.03,VWS V14.01,2013-06-03 00:35:00,
2013-06-02 17:40:00,68.4,49.6,30.09,NW,304,5.0,6.0,51,0.00,,---,0.03,VWS V14.01,2013-06-03 00:40:00,
2013-06-02 17:45:00,67.9,49.7,30.09,West,279,1.0,2.0,52,0.00,,---,0.03,VWS V14.01,2013-06-03 00:45:00,
2013-06-02 17:50:00,67.7,49.5,30.09,WSW,255,3.0,5.0,52,0.00,,---,0.03,VWS V14.01,2013-06-03 00:50:00,
2013-06-02 17:55:00,67.6,49.4,30.09,NW,309,0.0,2.0,52,0.00,,---,0.03,VWS V14.01,2013-06-03 00:55:00,
2013-06-02 18:00:00,68.0,50.2,30.09,WNW,290,1.0,5.0,53,0.00,,---,0.03,VWS V14.01,2013-06-03 01:00:00,
2013-06-02 18:05:00,68.5,50.2,30.08,NNW,340,3.0,4.0,52,0.00,,---,0.03,VWS V14.01,2013-06-03 01:05:00,
2013-06-02 18:10:00,69.0,49.6,30.08,WNW,287,6.0,6.0,50,0.00,,---,0.03,VWS V14.01,2013-06-03 01:10:00,
2013-06-02 18:15:00,68.9,49.0,30.09,WSW,241,4.0,6.0,49,0.00,,---,0.03,VWS V14.01,2013-06-03 01:15:00,
2013-06-02 18:20:00,69.2,50.3,30.08,NW,310,2.0,4.0,51,0.00,,---,0.03,VWS V14.01,2013-06-03 01:20:00,
2013-06-02 18:25:00,69.7,49.2,30.08,WNW,292,6.0,10.0,48,0.00,,---,0.03,VWS V14.01,2013-06-03 01:25:00,
2013-06-02 18:30:00,69.5,50.1,30.09,West,276,3.0,9.0,50,0.00,,---,0.03,VWS V14.01,2013-06-03 01:30:00,
2013-06-02 18:35:00,69.4,50.0,30.09,West,274,7.0,8.0,50,0.00,,---,0.03,VWS V14.01,2013-06-03 01:35:00,
2013-06-02 18:40:00,69.1,49.7,30.09,NW,308,5.0,10.0,50,0.00,,---,0.03,VWS V14.01,2013-06-03 01:40:00,
2013-06-02 18:45:00,68.8,49.4,30.09,NW,316,3.0,6.0,50,0.00,,---,0.03,VWS V14.01,2013-06-03 01:45:00,
2013-06-02 18:50:00,69.5,49.0,30.08,WNW,290,3.0,4.0,48,0.00,,---,0.03,VWS V14.01,2013-06-03 01:50:00,
2013-06-02 18:55:00,70.2,49.0,30.08,WNW,296,8.0,9.0,47,0.00,,---,0.03,VWS V14.01,2013-06-03 01:55:00,
2013-06-02 19:00:00,70.2,49.0,30.08,WNW,292,6.0,6.0,47,0.00,,---,0.03,VWS V14.01,2013-06-03 02:00:00,
2013-06-02 19:05:00,70.2,50.2,30.08,NW,319,2.0,4.0,49,0.00,,---,0.03,VWS V14.01,2013-06-03 02:05:00,
2013-06-02 19:10:00,70.1,49.5,30.08,WSW,257,5.0,5.0,48,0.00,,---,0.03,VWS V14.01,2013-06-03 02:10:00,
2013-06-02 19:15:00,69.5,50.1,30.08,NW,325,5.0,7.0,50,0.00,,---,0.03,VWS V14.01,2013-06-03 02:15:00,
2013-06-02 19:20:00,69.6,49.6,30.08,NNW,332,8.0,8.0,49,0.00,,---,0.03,VWS V14.01,2013-06-03 02:20:00,
2013-06-02 19:25:00,69.8,49.2,30.08,North,351,5.0,5.0,48,0.00,,---,0.03,VWS V14.01,2013-06-03 02:25:00,
2013-06-02 19:30:00,69.8,49.2,30.08,NW,307,4.0,6.0,48,0.00,,---,0.03,VWS V14.01,2013-06-03 02:30:00,
2013-06-02 19:35:00,69.5,49.5,30.08,NW,323,5.0,6.0,49,0.00,,---,0.03,VWS V14.01,2013-06-03 02:35:00,
2013-06-02 19:40:00,69.7,50.2,30.08,NNW,333,3.0,4.0,50,0.00,,---,0.03,VWS V14.01,2013-06-03 02:40:00,
2013-06-02 19:45:00,69.8,50.3,30.08,WNW,291,3.0,6.0,50,0.00,,---,0.03,VWS V14.01,2013-06-03 02:45:00,
2013-06-02 19:50:00,69.6,50.2,30.08,WNW,300,3.0,6.0,50,0.00,,---,0.03,VWS V14.01,2013-06-03 02:50:00,
2013-06-02 19:55:00,69.2,50.8,30.08,WNW,292,1.0,4.0,52,0.00,,---,0.03,VWS V14.01,2013-06-03 02:55:00,
2013-06-02 20:00:00,68.7,49.9,30.08,West,269,2.0,5.0,51,0.00,,---,0.03,VWS V14.01,2013-06-03 03:00:00,
2013-06-02 20:05:00,68.6,50.3,30.08,WNW,288,3.0,4.0,52,0.00,,---,0.03,VWS V14.01,2013-06-03 03:05:00,
2013-06-02 20:10:00,68.4,51.1,30.08,WNW,290,2.0,2.0,54,0.00,,---,0.03,VWS V14.01,2013-06-03 03:10:00,
2013-06-02 20:15:00,68.5,50.7,30.08,WNW,290,2.0,3.0,53,0.00,,---,0.03,VWS V14.01,2013-06-03 03:15:00,
2013-06-02 20:20:00,68.5,50.7,30.09,WNW,290,2.0,4.0,53,0.00,,---,0.03,VWS V14.01,2013-06-03 03:20:00,
2013-06-02 20:25:00,68.2,50.9,30.08,WNW,302,3.0,6.0,54,0.00,,---,0.03,VWS V14.01,2013-06-03 03:25:00,
2013-06-02 20:30:00,67.8,51.1,30.09,WNW,302,3.0,3.0,55,0.00,,---,0.03,VWS V14.01,2013-06-03 03:30:00,
2013-06-02 20:35:00,67.6,50.9,30.09,WNW,302,2.0,3.0,55,0.00,,---,0.03,VWS V14.01,2013-06-03 03:35:00,
2013-06-02 20:40:00,67.4,51.2,30.09,WNW,302,0.0,2.0,56,0.00,,---,0.03,VWS V14.01,2013-06-03 03:40:00,
2013-06-02 20:45:00,67.1,50.9,30.09,WNW,302,2.0,3.0,56,0.00,,---,0.03,VWS V14.01,2013-06-03 03:45:00,
2013-06-02 20:50:00,66.7,51.0,30.09,WNW,302,0.0,1.0,57,0.00,,---,0.03,VWS V14.01,2013-06-03 03:50:00,
2013-06-02 20:55:00,66.4,51.2,30.09,WNW,302,0.0,0.0,58,0.00,,---,0.03,VWS V14.01,2013-06-03 03:55:00,
2013-06-02 21:00:00,66.0,51.3,30.09,WNW,302,0.0,2.0,59,0.00,,---,0.03,VWS V14.01,2013-06-03 04:00:00,
2013-06-02 21:01:00,65.9,51.2,30.09,WNW,302,0.0,0.0,59,0.00,,---,0.03,VWS V14.01,2013-06-03 04:01:00,
2013-06-02 21:02:00,65.9,51.2,30.09,WNW,302,0.0,1.0,59,0.00,,---,0.03,VWS V14.01,2013-06-03 04:02:00,
2013-06-02 21:03:00,65.8,51.1,30.09,WNW,302,0.0,1.0,59,0.00,,---,0.03,VWS V14.01,2013-06-03 04:03:00,
2013-06-02 21:08:00,65.4,51.2,30.09,WNW,302,0.0,0.0,60,0.00,,---,0.03,VWS V14.01,2013-06-03 04:08:00,
2013-06-02 21:10:00,65.3,51.1,30.09,WNW,302,0.0,0.0,60,0.00,,---,0.03,VWS V14.01,2013-06-03 04:10:00,
2013-06-02 21:15:00,64.8,51.0,30.10,WNW,302,0.0,0.0,61,0.00,,---,0.03,VWS V14.01,2013-06-03 04:15:00,
2013-06-02 21:20:00,64.4,51.1,30.10,WNW,302,0.0,0.0,62,0.00,,---,0.03,VWS V14.01,2013-06-03 04:20:00,
2013-06-02 21:25:00,64.1,51.3,30.10,WNW,302,0.0,0.0,63,0.00,,---,0.03,VWS V14.01,2013-06-03 04:25:00,
2013-06-02 21:31:00,63.6,51.2,30.10,WNW,302,0.0,0.0,64,0.00,,---,0.03,VWS V14.01,2013-06-03 04:31:00,
2013-06-02 21:36:00,63.2,51.2,30.10,WNW,302,0.0,0.0,65,0.00,,---,0.03,VWS V14.01,2013-06-03 04:36:00,
2013-06-02 21:41:00,62.7,51.2,30.10,WNW,302,0.0,0.0,66,0.00,,---,0.03,VWS V14.01,2013-06-03 04:41:00,
2013-06-02 21:46:00,62.3,51.2,30.11,WNW,302,0.0,0.0,67,0.00,,---,0.03,VWS V14.01,2013-06-03 04:46:00,
2013-06-02 21:51:00,61.9,50.8,30.11,WNW,302,0.0,0.0,67,0.00,,---,0.03,VWS V14.01,2013-06-03 04:51:00,
2013-06-02 21:56:00,61.6,51.3,30.11,WNW,302,0.0,0.0,69,0.00,,---,0.03,VWS V14.01,2013-06-03 04:56:00,
2013-06-02 22:01:00,61.3,51.1,30.11,WNW,302,0.0,0.0,69,0.00,,---,0.03,VWS V14.01,2013-06-03 05:01:00,
2013-06-02 22:06:00,61.1,50.5,30.11,WNW,302,0.0,0.0,68,0.00,,---,0.03,VWS V14.01,2013-06-03 05:06:00,
2013-06-02 22:11:00,60.9,50.7,30.11,WNW,302,0.0,0.0,69,0.00,,---,0.03,VWS V14.01,2013-06-03 05:11:00,
2013-06-02 22:16:00,60.9,50.7,30.11,WNW,302,0.0,0.0,69,0.00,,---,0.03,VWS V14.01,2013-06-03 05:16:00,
2013-06-02 22:21:00,60.7,50.9,30.11,WNW,302,0.0,0.0,70,0.00,,---,0.03,VWS V14.01,2013-06-03 05:21:00,
2013-06-02 22:26:00,60.4,50.6,30.11,WNW,302,2.0,3.0,70,0.00,,---,0.03,VWS V14.01,2013-06-03 05:26:00,
2013-06-02 22:31:00,60.1,49.9,30.11,WNW,302,0.0,1.0,69,0.00,,---,0.03,VWS V14.01,2013-06-03 05:31:00,
2013-06-02 22:36:00,59.8,50.8,30.11,WNW,302,0.0,0.0,72,0.00,,---,0.03,VWS V14.01,2013-06-03 05:36:00,
2013-06-02 22:41:00,59.5,50.5,30.11,WNW,302,0.0,0.0,72,0.00,,---,0.03,VWS V14.01,2013-06-03 05:41:00,
2013-06-02 22:46:00,59.2,50.2,30.11,WNW,302,0.0,1.0,72,0.00,,---,0.03,VWS V14.01,2013-06-03 05:46:00,
2013-06-02 22:51:00,59.3,49.9,30.11,WNW,302,0.0,1.0,71,0.00,,---,0.03,VWS V14.01,2013-06-03 05:51:00,
2013-06-02 22:56:00,59.3,50.7,30.11,WNW,302,0.0,0.0,73,0.00,,---,0.03,VWS V14.01,2013-06-03 05:56:00,
2013-06-02 23:01:00,59.1,50.5,30.11,WNW,302,0.0,0.0,73,0.00,,---,0.03,VWS V14.01,2013-06-03 06:01:00,
2013-06-02 23:06:00,58.9,50.6,30.11,WNW,302,2.0,2.0,74,0.00,,---,0.03,VWS V14.01,2013-06-03 06:06:00,
2013-06-02 23:11:00,58.7,50.1,30.11,NNE,26,0.0,2.0,73,0.00,,---,0.03,VWS V14.01,2013-06-03 06:11:00,
2013-06-02 23:16:00,58.6,50.0,30.11,NNE,26,0.0,1.0,73,0.00,,---,0.03,VWS V14.01,2013-06-03 06:16:00,
2013-06-02 23:21:00,58.5,49.9,30.11,NNE,26,2.0,2.0,73,0.00,,---,0.03,VWS V14.01,2013-06-03 06:21:00,
2013-06-02 23:26:00,58.5,49.9,30.11,NNE,26,1.0,2.0,73,0.00,,---,0.03,VWS V14.01,2013-06-03 06:26:00,
2013-06-02 23:31:00,58.4,49.8,30.11,NNE,26,0.0,0.0,73,0.00,,---,0.03,VWS V14.01,2013-06-03 06:31:00,
2013-06-02 23:36:00,58.2,49.6,30.11,NNE,26,0.0,0.0,73,0.00,,---,0.03,VWS V14.01,2013-06-03 06:36:00,
2013-06-02 23:41:00,58.1,50.6,30.11,NNE,26,0.0,0.0,76,0.00,,---,0.03,VWS V14.01,2013-06-03 06:41:00,
2013-06-02 23:46:00,57.8,50.3,30.11,NNE,26,0.0,0.0,76,0.00,,---,0.03,VWS V14.01,2013-06-03 06:46:00,
2013-06-02 23:51:00,57.3,50.2,30.11,NNE,26,2.0,3.0,77,0.00,,---,0.03,VWS V14.01,2013-06-03 06:51:00,
2013-06-02 23:56:00,56.8,50.4,30.11,ENE,76,0.0,0.0,79,0.00,,---,0.03,VWS V14.01,2013-06-03 06:56:00,